Terminal Aerodrome Forecast
Issued by NWS Albany, NY

Home | Current Version | Previous Version | Text Only | Print | Product List | Glossary On
Versions: 1 2 3 4 5 6 7 8 9 10 11 12 13 14 15 16 17 18 19 20 21
101
FTUS41 KALY 232327
TAFALB
TAF
KALB 232327Z 2400/2424 27006KT P6SM FEW200
     FM240600 VRB03KT P6SM BKN110
     FM241200 17008KT P6SM VCSH OVC070
     FM241400 17010KT 1SM -SN BR OVC040
     FM241500 17014G23KT 2SM -FZRAPL BR OVC020
     FM241700 18012G21KT 4SM -RA BR OVC012
     FM242100 19010G18KT P6SM OVC020 PROB30 2421/2422 4SM -SHRA
      OVC015=

USA.gov is the U.S. government's official web portal to all federal, state and local government web resources and services.